createdAt,value
2019-01-19T00:00:01.976Z,90.44
2019-01-19T00:05:01.300Z,90.52
2019-01-19T00:15:01.837Z,90.17
2019-01-19T00:20:02.106Z,90.09
2019-01-19T00:25:01.381Z,89.9
2019-01-19T00:30:01.676Z,89.88
2019-01-19T00:35:02.013Z,89.86
2019-01-19T00:40:01.314Z,89.77
2019-01-19T00:45:01.608Z,89.73
2019-01-19T00:50:01.887Z,89.83
2019-01-19T00:55:01.209Z,89.84
2019-01-19T01:00:01.525Z,89.95
2019-01-19T01:05:01.841Z,90.29
2019-01-19T01:10:02.085Z,90.32
2019-01-19T01:15:01.362Z,90.62
2019-01-19T01:20:01.684Z,90.69
2019-01-19T01:25:01.947Z,90.83
2019-01-19T01:30:01.235Z,90.76
2019-01-19T01:35:01.634Z,90.84
2019-01-19T01:40:02.023Z,90.78
2019-01-19T01:45:01.344Z,90.76
2019-01-19T01:50:01.608Z,90.59
2019-01-19T01:55:01.946Z,90.45
2019-01-19T02:00:01.271Z,90.42
2019-01-19T02:05:01.568Z,90.52
2019-01-19T02:10:02.002Z,90.29
2019-01-19T02:15:01.357Z,90.29
2019-01-19T02:20:01.682Z,90.42
2019-01-19T02:25:02.003Z,90.51
2019-01-19T02:30:01.361Z,90.57
2019-01-19T02:35:01.711Z,90.53
2019-01-19T02:40:02.095Z,90.57
2019-01-19T02:45:01.319Z,90.68
2019-01-19T02:50:01.803Z,90.75
2019-01-19T02:55:02.120Z,90.8
2019-01-19T03:00:01.396Z,90.71
2019-01-19T03:05:01.725Z,90.89
2019-01-19T03:10:02.015Z,90.92
2019-01-19T03:15:01.782Z,91.03
2019-01-19T03:20:02.199Z,91.05
2019-01-19T03:25:01.620Z,90.88
2019-01-19T03:30:01.909Z,90.88
2019-01-19T03:35:01.284Z,90.74
2019-01-19T03:40:01.200Z,90.72
2019-01-19T03:45:01.485Z,90.44
2019-01-19T03:50:01.778Z,90.33
2019-01-19T03:55:02.050Z,90.2
2019-01-19T04:00:01.652Z,90.34
2019-01-19T04:05:01.954Z,90.45
2019-01-19T04:10:01.221Z,90.54
2019-01-19T04:15:01.785Z,90.67
2019-01-19T04:20:02.077Z,90.87
2019-01-19T04:25:01.358Z,90.96
2019-01-19T04:30:01.689Z,91.16
2019-01-19T04:35:02.040Z,91.43
2019-01-19T04:40:01.337Z,91.45
2019-01-19T04:45:01.626Z,91.82
2019-01-19T04:50:01.926Z,91.86
2019-01-19T04:55:01.266Z,91.88
2019-01-19T05:00:01.526Z,91.93
2019-01-19T05:05:01.770Z,91.89
2019-01-19T05:10:02.016Z,92.13
2019-01-19T05:15:01.428Z,92.19
2019-01-19T05:20:01.726Z,92.32
2019-01-19T05:25:02.009Z,92.49
2019-01-19T05:30:01.456Z,92.74
2019-01-19T05:35:01.843Z,93.16
2019-01-19T05:40:01.854Z,93.25
2019-01-19T05:45:02.158Z,93
2019-01-19T05:50:01.427Z,92.82
2019-01-19T05:55:01.690Z,92.55
2019-01-19T06:00:01.987Z,92.2
2019-01-19T06:05:01.339Z,92.16
2019-01-19T06:10:01.627Z,91.61
2019-01-19T06:15:01.906Z,91.63
2019-01-19T06:20:01.193Z,91.35
2019-01-19T06:25:01.461Z,91.66
2019-01-19T06:30:01.754Z,91.72
2019-01-19T06:35:01.999Z,91.67
2019-01-19T06:40:01.301Z,91.9
2019-01-19T06:45:01.656Z,91.7
2019-01-19T06:50:01.947Z,91.85
2019-01-19T06:55:01.223Z,91.51
2019-01-19T07:00:01.514Z,91.55
2019-01-19T07:05:01.860Z,91.51
2019-01-19T07:10:02.119Z,91.4
2019-01-19T07:15:01.351Z,90.95
2019-01-19T07:20:01.639Z,90.55
2019-01-19T07:25:01.996Z,90.51
2019-01-19T07:30:01.240Z,90.1
2019-01-19T07:35:01.554Z,89.76
2019-01-19T07:40:01.834Z,89.27
2019-01-19T07:45:02.149Z,89.12
2019-01-19T07:50:01.411Z,88.98
2019-01-19T07:55:01.732Z,88.98
2019-01-19T08:00:01.977Z,88.52
2019-01-19T08:05:01.309Z,88.5
2019-01-19T08:10:01.600Z,88.31
2019-01-19T08:15:01.887Z,88.14
2019-01-19T08:20:02.154Z,87.69
2019-01-19T08:25:01.373Z,87.56
2019-01-19T08:30:01.636Z,87.43
2019-01-19T08:35:01.926Z,87.62
2019-01-19T08:40:01.216Z,87.5
2019-01-19T08:45:01.508Z,87.37
2019-01-19T08:50:01.796Z,86.74
2019-01-19T08:55:02.053Z,86.56
2019-01-19T09:00:01.325Z,85.89
2019-01-19T09:05:01.617Z,85.17
2019-01-19T09:10:01.868Z,84.72
2019-01-19T09:15:02.135Z,84.24
2019-01-19T09:20:01.395Z,84.27
2019-01-19T09:25:01.741Z,84.27
2019-01-19T09:30:01.996Z,84.19
2019-01-19T09:35:01.292Z,84.28
2019-01-19T09:40:01.627Z,84.26
2019-01-19T09:45:01.937Z,83.83
2019-01-19T09:50:01.451Z,83.32
2019-01-19T09:55:01.743Z,82.47
2019-01-19T10:00:02.034Z,81.7
2019-01-19T10:05:01.311Z,80.86
2019-01-19T10:10:01.723Z,79.94
2019-01-19T10:15:02.077Z,79.56
2019-01-19T10:20:01.346Z,79.38
2019-01-19T10:25:01.600Z,78.84
2019-01-19T10:30:01.899Z,78.16
2019-01-19T10:35:01.201Z,77.27
2019-01-19T10:40:01.788Z,76.68
2019-01-19T10:45:02.125Z,76.8
2019-01-19T10:50:01.378Z,76.52
2019-01-19T10:55:01.688Z,76.16
2019-01-19T11:00:01.957Z,75.84
2019-01-19T11:05:01.270Z,75.13
2019-01-19T11:10:01.524Z,74.9
2019-01-19T11:15:01.780Z,74.2
2019-01-19T11:20:02.118Z,73.97
2019-01-19T11:25:01.376Z,74.19
2019-01-19T11:30:01.719Z,73.81
2019-01-19T11:35:02.030Z,73.56
2019-01-19T11:40:01.316Z,73.06
2019-01-19T11:45:01.651Z,72.75
2019-01-19T11:50:01.993Z,72.19
2019-01-19T11:55:01.252Z,71.62
2019-01-19T12:00:01.593Z,71.82
2019-01-19T12:05:01.865Z,71.43
2019-01-19T12:10:02.110Z,70.98
2019-01-19T12:15:01.368Z,70.53
2019-01-19T12:20:01.696Z,70.37
2019-01-19T12:25:01.958Z,69.97
2019-01-19T12:30:01.196Z,70.72
2019-01-19T12:35:01.478Z,69.66
2019-01-19T12:40:01.785Z,69.91
2019-01-19T12:45:02.094Z,69.08
2019-01-19T12:50:01.382Z,69
2019-01-19T12:55:01.771Z,67.86
2019-01-19T13:00:02.071Z,68.05
2019-01-19T13:05:01.345Z,66.86
2019-01-19T13:10:01.622Z,66.95
2019-01-19T13:15:01.949Z,66.9
2019-01-19T13:20:01.333Z,66.46
2019-01-19T13:25:01.627Z,66.99
2019-01-19T13:30:01.899Z,66.96
2019-01-19T13:35:01.230Z,67.83
2019-01-19T13:40:01.542Z,65.96
2019-01-19T13:45:01.833Z,66.85
2019-01-19T13:50:02.112Z,66.77
2019-01-19T13:55:01.413Z,66.05
2019-01-19T14:00:01.775Z,65.15
2019-01-19T14:05:02.050Z,65.63
2019-01-19T14:10:01.286Z,64.84
2019-01-19T14:15:01.573Z,64.38
2019-01-19T14:20:01.886Z,65.37
2019-01-19T14:25:02.139Z,66.39
2019-01-19T14:30:01.397Z,65.83
2019-01-19T14:35:01.708Z,66.23
2019-01-19T14:40:02.051Z,66.19
2019-01-19T14:45:01.313Z,67.88
2019-01-19T14:50:01.609Z,66.95
2019-01-19T14:55:02.087Z,66.73
2019-01-19T15:00:01.627Z,67.8
2019-01-19T15:05:01.887Z,66.58
2019-01-19T15:10:01.211Z,66.73
2019-01-19T15:15:01.528Z,66.55
2019-01-19T15:20:01.799Z,67.62
2019-01-19T15:25:02.060Z,66.6
2019-01-19T15:30:01.323Z,66.9
2019-01-19T15:35:01.706Z,66.83
2019-01-19T15:40:01.980Z,67.34
2019-01-19T15:45:01.312Z,67.73
2019-01-19T15:50:01.702Z,68.69
2019-01-19T15:55:02.012Z,68.44
2019-01-19T16:00:01.305Z,68.72
2019-01-19T16:05:01.751Z,69.07
2019-01-19T16:10:02.022Z,70.22
2019-01-19T16:15:01.318Z,70.19
2019-01-19T16:20:01.706Z,70.62
2019-01-19T16:25:02.025Z,70.81
2019-01-19T16:30:01.318Z,71.63
2019-01-19T16:35:01.641Z,72.97
2019-01-19T16:40:01.951Z,75.48
2019-01-19T16:45:01.231Z,76.37
2019-01-19T16:50:01.554Z,75.1
2019-01-19T16:55:01.915Z,73.81
2019-01-19T17:00:01.194Z,74.78
2019-01-19T17:05:01.463Z,75.38
2019-01-19T17:10:01.604Z,74.7
2019-01-19T17:15:01.866Z,73.61
2019-01-19T17:20:02.140Z,73.3
2019-01-19T17:25:01.399Z,73.02
2019-01-19T17:30:01.716Z,72.33
2019-01-19T17:35:02.037Z,71.67
2019-01-19T17:40:01.297Z,71.68
2019-01-19T17:45:01.583Z,71.49
2019-01-19T17:50:01.936Z,71.47
2019-01-19T17:55:01.209Z,71.4
2019-01-19T18:00:01.503Z,71.3
2019-01-19T18:05:01.793Z,71.4
2019-01-19T18:10:02.062Z,71.66
2019-01-19T18:15:01.334Z,71.84
2019-01-19T18:20:01.627Z,72.22
2019-01-19T18:25:01.919Z,72.39
2019-01-19T18:30:02.171Z,72.84
2019-01-19T18:35:01.445Z,73.17
2019-01-19T18:40:01.724Z,73.63
2019-01-19T18:45:01.991Z,74.06
2019-01-19T18:50:01.392Z,74.17
2019-01-19T18:55:01.701Z,74.49
2019-01-19T19:00:01.971Z,74.73
2019-01-19T19:05:01.260Z,74.78
2019-01-19T19:10:02.549Z,75.23
2019-01-19T19:15:01.823Z,75.38
2019-01-19T19:20:02.098Z,75.61
2019-01-19T19:25:01.361Z,75.96
2019-01-19T19:30:01.727Z,76.37
2019-01-19T19:35:02.048Z,76.51
2019-01-19T19:40:01.317Z,76.66
2019-01-19T19:45:01.642Z,76.86
2019-01-19T19:50:01.983Z,76.9
2019-01-19T19:55:01.255Z,76.94
2019-01-19T20:00:01.541Z,77.25
2019-01-19T20:05:01.807Z,77.38
2019-01-19T20:10:02.127Z,77.66
2019-01-19T20:15:01.372Z,77.76
2019-01-19T20:20:01.654Z,77.89
2019-01-19T20:25:01.945Z,78.14
2019-01-19T20:30:01.258Z,78.56
2019-01-19T20:35:01.570Z,78.93
2019-01-19T20:40:01.898Z,79.13
2019-01-19T20:45:01.281Z,79.39
2019-01-19T20:50:01.604Z,79.65
2019-01-19T20:55:01.871Z,80.12
2019-01-19T21:00:02.111Z,80.44
2019-01-19T21:05:01.403Z,80.83
2019-01-19T21:10:01.740Z,81.18
2019-01-19T21:15:01.233Z,81.45
2019-01-19T21:20:01.511Z,81.62
2019-01-19T21:25:01.744Z,81.59
2019-01-19T21:30:02.024Z,81.79
2019-01-19T21:35:01.354Z,81.73
2019-01-19T21:40:01.792Z,81.94
2019-01-19T21:45:02.122Z,82.23
2019-01-19T21:50:01.382Z,82.36
2019-01-19T21:55:01.679Z,82.6
2019-01-19T22:00:01.964Z,82.66
2019-01-19T22:05:01.316Z,82.89
2019-01-19T22:10:01.584Z,83.22
2019-01-19T22:15:01.869Z,83.57
2019-01-19T22:20:02.146Z,83.47
2019-01-19T22:25:01.411Z,83.46
2019-01-19T22:30:01.679Z,83.68
2019-01-19T22:35:01.988Z,83.76
2019-01-19T22:40:01.330Z,83.84
2019-01-19T22:45:01.625Z,84.52
2019-01-19T22:50:01.911Z,84.17
2019-01-19T22:55:01.309Z,84.76
2019-01-19T23:00:01.681Z,86.47
2019-01-19T23:05:01.966Z,87.01
2019-01-19T23:10:01.357Z,87.72
2019-01-19T23:15:01.615Z,88.96
2019-01-19T23:20:01.955Z,89.59
2019-01-19T23:25:01.199Z,89.97
2019-01-19T23:30:01.484Z,90.4
2019-01-19T23:35:01.793Z,90.86
2019-01-19T23:40:02.153Z,91.11
2019-01-19T23:45:01.387Z,91.37
2019-01-19T23:50:01.663Z,91.53
2019-01-19T23:55:01.914Z,91.71
